Map

Track Data

SID SEASON NUMBER BASIN SUBBASIN NAME ISO_TIME NATURE LAT LON WMO_WIND WMO_PRES WMO_AGENCY TRACK_TYPE DIST2LAND LANDFALL IFLAG USA_AGENCY USA_ATCF_ID USA_LAT USA_LON USA_RECORD USA_STATUS USA_WIND USA_PRES USA_SSHS USA_R34_NE USA_R34_SE USA_R34_SW USA_R34_NW USA_R50_NE USA_R50_SE USA_R50_SW USA_R50_NW USA_R64_NE USA_R64_SE USA_R64_SW USA_R64_NW USA_POCI USA_ROCI USA_RMW USA_EYE TOKYO_LAT TOKYO_LON TOKYO_GRADE TOKYO_WIND TOKYO_PRES TOKYO_R50_DIR TOKYO_R50_LONG TOKYO_R50_SHORT TOKYO_R30_DIR TOKYO_R30_LONG TOKYO_R30_SHORT TOKYO_LAND CMA_LAT CMA_LON CMA_CAT CMA_WIND CMA_PRES HKO_LAT HKO_LON HKO_CAT HKO_WIND HKO_PRES NEWDELHI_LAT NEWDELHI_LON NEWDELHI_GRADE NEWDELHI_WIND NEWDELHI_PRES NEWDELHI_CI NEWDELHI_DP NEWDELHI_POCI REUNION_LAT REUNION_LON REUNION_TYPE REUNION_WIND REUNION_PRES REUNION_TNUM REUNION_CI REUNION_RMW REUNION_R34_NE REUNION_R34_SE REUNION_R34_SW REUNION_R34_NW REUNION_R50_NE REUNION_R50_SE REUNION_R50_SW REUNION_R50_NW REUNION_R64_NE REUNION_R64_SE REUNION_R64_SW REUNION_R64_NW BOM_LAT BOM_LON BOM_TYPE BOM_WIND BOM_PRES BOM_TNUM BOM_CI BOM_RMW BOM_R34_NE BOM_R34_SE BOM_R34_SW BOM_R34_NW BOM_R50_NE BOM_R50_SE BOM_R50_SW BOM_R50_NW BOM_R64_NE BOM_R64_SE BOM_R64_SW BOM_R64_NW BOM_ROCI BOM_POCI BOM_EYE BOM_POS_METHOD BOM_PRES_METHOD NADI_LAT NADI_LON NADI_CAT NADI_WIND NADI_PRES WELLINGTON_LAT WELLINGTON_LON WELLINGTON_WIND WELLINGTON_PRES DS824_LAT DS824_LON DS824_STAGE DS824_WIND DS824_PRES TD9636_LAT TD9636_LON TD9636_STAGE TD9636_WIND TD9636_PRES TD9635_LAT TD9635_LON TD9635_WIND TD9635_PRES TD9635_ROCI NEUMANN_LAT NEUMANN_LON NEUMANN_CLASS NEUMANN_WIND NEUMANN_PRES MLC_LAT MLC_LON MLC_CLASS MLC_WIND MLC_PRES USA_GUST BOM_GUST BOM_GUST_PER REUNION_GUST REUNION_GUST_PER USA_SEAHGT USA_SEARAD_NE USA_SEARAD_SE USA_SEARAD_SW USA_SEARAD_NW STORM_SPEED STORM_DIR
1911042S14145 1911 16 SP EA NOT_NAMED 1911-02-10 23:00:00 NR -13.6000 145.200 main 108 101 __________O___ -1 -13.6000 145.200 7 9 185
1911042S14145 1911 16 SP EA NOT_NAMED 1911-02-11 00:00:00 NR -13.7422 145.198 main 101 72 __________P___ -1 -13.7422 145.198 7 9 181
1911042S14145 1911 16 SP EA NOT_NAMED 1911-02-11 03:00:00 NR -14.1649 145.196 main 64 31 __________P___ -1 -14.1649 145.196 7 8 0
1911042S14145 1911 16 SP EA NOT_NAMED 1911-02-11 06:00:00 NR -14.5744 145.210 main 31 0 __________P___ -1 -14.5744 145.210 7 8 176
1911042S14145 1911 16 SP EA NOT_NAMED 1911-02-11 09:00:00 NR -14.9605 145.251 main 0 0 __________P___ -1 -14.9605 145.251 7 8 172
1911042S14145 1911 16 SP EA NOT_NAMED 1911-02-11 11:00:00 NR -15.2000 145.300 main 10 0 __________O___ -1 -15.2000 145.300 7 7 167
1911042S14145 1911 16 SP EA NOT_NAMED 1911-02-11 12:00:00 NR -15.3134 145.332 main 0 0 __________P___ -1 -15.3134 145.332 7 7 161
1911042S14145 1911 16 SP EA NOT_NAMED 1911-02-11 15:00:00 NR -15.6279 145.455 main 21 15 __________P___ -1 -15.6279 145.455 7 7 156
1911042S14145 1911 16 SP EA NOT_NAMED 1911-02-11 18:00:00 NR -15.9066 145.609 main 21 15 __________P___ -1 -15.9066 145.609 7 6 149
1911042S14145 1911 16 SP EA NOT_NAMED 1911-02-11 21:00:00 NR -16.1526 145.781 main 32 32 __________P___ -1 -16.1526 145.781 7 6 145
1911042S14145 1911 16 SP EA NOT_NAMED 1911-02-11 23:00:00 NR -16.3000 145.900 main 42 42 __________O___ -1 -16.3000 145.900 7 6 143
1911042S14145 1911 16 SP EA NOT_NAMED 1911-02-12 00:00:00 NR -16.3730 145.956 main 54 46 __________P___ -1 -16.3730 145.956 7 5 141
1911042S14145 1911 16 SP EA NOT_NAMED 1911-02-12 03:00:00 NR -16.5704 146.131 main 46 46 __________P___ -1 -16.5704 146.131 7 5 138
1911042S14145 1911 16 SP EA NOT_NAMED 1911-02-12 06:00:00 NR -16.7428 146.310 main 54 48 __________P___ -1 -16.7428 146.310 7 5 134
1911042S14145 1911 16 SP EA NOT_NAMED 1911-02-12 09:00:00 NR -16.8995 146.486 main 64 61 __________P___ -1 -16.8995 146.486 7 5 133
1911042S14145 1911 16 SP EA NOT_NAMED 1911-02-12 11:00:00 NR -17.0000 146.600 main 69 69 __________O___ -1 -17.0000 146.600 7 4 132
1911042S14145 1911 16 SP EA NOT_NAMED 1911-02-12 12:00:00 NR -17.0459 146.651 main 77 72 __________P___ -1 -17.0459 146.651 7 4 132
1911042S14145 1911 16 SP EA NOT_NAMED 1911-02-12 15:00:00 NR -17.1752 146.797 main 77 77 __________P___ -1 -17.1752 146.797 7 4 134
1911042S14145 1911 16 SP EA NOT_NAMED 1911-02-12 18:00:00 NR -17.3087 146.941 main 85 85 __________P___ -1 -17.3087 146.941 7 4 136
1911042S14145 1911 16 SP EA NOT_NAMED 1911-02-12 21:00:00 NR -17.4683 147.092 main 106 106 __________P___ -1 -17.4683 147.092 7 5 140
1911042S14145 1911 16 SP EA NOT_NAMED 1911-02-12 23:00:00 NR -17.6000 147.200 main 116 116 __________O___ -1 -17.6000 147.200 7 5 141
1911042S14145 1911 16 SP EA NOT_NAMED 1911-02-13 00:00:00 NR -17.6799 147.268 main 127 127 __________P___ -1 -17.6799 147.268 7 7 142
1911042S14145 1911 16 SP EA NOT_NAMED 1911-02-13 03:00:00 NR -17.9528 147.488 main 143 135 __________P___ -1 -17.9528 147.488 7 7 144
1911042S14145 1911 16 SP EA NOT_NAMED 1911-02-13 06:00:00 NR -18.2605 147.709 main 127 103 __________P___ -1 -18.2605 147.709 7 7 148
1911042S14145 1911 16 SP EA NOT_NAMED 1911-02-13 09:00:00 NR -18.5844 147.901 main 103 92 __________P___ -1 -18.5844 147.901 7 7 153
1911042S14145 1911 16 SP EA NOT_NAMED 1911-02-13 11:00:00 NR -18.8000 148.000 main 92 84 __________O___ -1 -18.8000 148.000 7 7 159
1911042S14145 1911 16 SP EA NOT_NAMED 1911-02-13 12:00:00 NR -18.9086 148.033 main 84 71 __________P___ -1 -18.9086 148.033 7 7 169
1911042S14145 1911 16 SP EA NOT_NAMED 1911-02-13 15:00:00 NR -19.2379 148.095 main 71 45 __________P___ -1 -19.2379 148.095 7 7 173
1911042S14145 1911 16 SP EA NOT_NAMED 1911-02-13 18:00:00 NR -19.5556 148.113 main 38 22 __________P___ -1 -19.5556 148.113 7 6 178
1911042S14145 1911 16 SP EA NOT_NAMED 1911-02-13 21:00:00 NR -19.8399 148.108 main 22 0 __________P___ -1 -19.8399 148.108 7 5 0
1911042S14145 1911 16 SP EA NOT_NAMED 1911-02-13 23:00:00 NR -20.0000 148.100 main 0 0 __________O___ -1 -20.0000 148.100 7 5 0
1911042S14145 1911 16 SP EA NOT_NAMED 1911-02-14 00:00:00 NR -20.0651 148.105 main 0 0 __________P___ -1 -20.0651 148.105 7 3 0
1911042S14145 1911 16 SP EA NOT_NAMED 1911-02-14 03:00:00 NR -20.2220 148.113 main 0 0 __________P___ -1 -20.2220 148.113 7 3 174
1911042S14145 1911 16 SP EA NOT_NAMED 1911-02-14 06:00:00 NR -20.3380 148.115 main 0 0 __________P___ -1 -20.3380 148.115 7 2 0
1911042S14145 1911 16 SP EA NOT_NAMED 1911-02-14 09:00:00 NR -20.4350 148.108 main 0 0 __________P___ -1 -20.4350 148.108 7 2 187
1911042S14145 1911 16 SP EA NOT_NAMED 1911-02-14 11:00:00 NR -20.5000 148.100 main 0 0 __________O___ -1 -20.5000 148.100 7 2 186
1911042S14145 1911 16 SP EA NOT_NAMED 1911-02-14 12:00:00 NR -20.5392 148.097 main 0 0 __________P___ -1 -20.5392 148.097 7 2 190
1911042S14145 1911 16 SP EA NOT_NAMED 1911-02-14 15:00:00 NR -20.6558 148.085 main 0 0 __________P___ -1 -20.6558 148.085 7 2 191
1911042S14145 1911 16 SP EA NOT_NAMED 1911-02-14 18:00:00 NR -20.7757 148.064 main 0 0 __________P___ -1 -20.7757 148.064 7 3 193
1911042S14145 1911 16 SP EA NOT_NAMED 1911-02-14 21:00:00 NR -20.9052 148.031 main 0 0 __________P___ -1 -20.9052 148.031 7 3 194
1911042S14145 1911 16 SP EA NOT_NAMED 1911-02-14 23:00:00 NR -21.0000 148.000 main 0 0 __________O___ -1 -21.0000 148.000 7 3 196
1911042S14145 1911 16 SP EA NOT_NAMED 1911-02-15 00:00:00 NR -21.0529 147.984 main 0 0 __________P___ -1 -21.0529 147.984 7 4 198
1911042S14145 1911 16 SP EA NOT_NAMED 1911-02-15 03:00:00 NR -21.2229 147.927 main 0 0 __________P___ -1 -21.2229 147.927 7 4 198
1911042S14145 1911 16 SP EA NOT_NAMED 1911-02-15 06:00:00 NR -21.4030 147.854 main 0 0 __________P___ -1 -21.4030 147.854 7 4 202
1911042S14145 1911 16 SP EA NOT_NAMED 1911-02-15 09:00:00 NR -21.5838 147.767 main 0 0 __________P___ -1 -21.5838 147.767 7 4 205
1911042S14145 1911 16 SP EA NOT_NAMED 1911-02-15 11:00:00 NR -21.7000 147.700 main 0 0 __________O___ -1 -21.7000 147.700 7 4 210
1911042S14145 1911 16 SP EA NOT_NAMED 1911-02-15 12:00:00 NR -21.7559 147.664 main 0 0 __________P___ -1 -21.7559 147.664 7 4 213
1911042S14145 1911 16 SP EA NOT_NAMED 1911-02-15 15:00:00 NR -21.9149 147.548 main 0 0 __________P___ -1 -21.9149 147.548 7 4 216
1911042S14145 1911 16 SP EA NOT_NAMED 1911-02-15 18:00:00 NR -22.0639 147.422 main 0 0 __________P___ -1 -22.0639 147.422 7 4 219
1911042S14145 1911 16 SP EA NOT_NAMED 1911-02-15 21:00:00 NR -22.2066 147.290 main 0 0 __________P___ -1 -22.2066 147.290 7 4 221
1911042S14145 1911 16 SP EA NOT_NAMED 1911-02-15 23:00:00 NR -22.3000 147.200 main 0 __________O___ -1 -22.3000 147.200 7 4 222

Digital Typhoon Data and Search

About IBTrACS Database

This database is a web-friendly format of International Best Track Archive for Climate Stewardship (IBTrACS), a global best track data archive curated by NOAA dating back to 1842.

Updated: 2021-10-21